Time;durP1;ratioP1;P1;durP2;ratioP2;P2;SDS_P1;SDS_P2;PMS_P1;PMS_P2;Temp;Humidity;BMP_temperature;BMP_pressure;BME280_temperature;BME280_humidity;BME280_pressure;Samples;Min_cycle;Max_cycle;Signal;HPM_P1;HPM_P2
2021/06/23 00:00:27;;;;;;;12.55;3.20;;;14.70;99.90;;;;;;4992786;28;20200;-80
2021/06/23 00:02:54;;;;;;;6.90;3.55;;;14.40;99.90;;;;;;4992667;28;20192;-81
2021/06/23 00:05:20;;;;;;;8.38;3.13;;;14.40;99.90;;;;;;4993103;28;20225;-81
2021/06/23 00:07:46;;;;;;;19.10;4.40;;;14.20;99.90;;;;;;5007479;28;20240;-81
2021/06/23 00:10:13;;;;;;;4.28;3.40;;;14.20;99.90;;;;;;4994469;28;20657;-81
2021/06/23 00:12:39;;;;;;;5.13;2.25;;;14.20;99.90;;;;;;4995939;28;20185;-81
2021/06/23 00:15:07;;;;;;;4.97;2.50;;;14.20;99.90;;;;;;4995979;28;20284;-80
2021/06/23 00:17:33;;;;;;;3.17;2.40;;;14.20;99.90;;;;;;4995749;28;20157;-79
2021/06/23 00:19:58;;;;;;;4.45;2.38;;;14.40;99.90;;;;;;4995948;28;20177;-81
2021/06/23 00:22:24;;;;;;;5.63;2.13;;;14.30;99.90;;;;;;4994132;28;20209;-81
2021/06/23 00:24:50;;;;;;;9.02;2.30;;;14.30;99.90;;;;;;4995900;28;20177;-81
2021/06/23 00:27:16;;;;;;;12.30;2.85;;;14.30;99.90;;;;;;4995948;28;20166;-80
2021/06/23 00:29:41;;;;;;;4.35;2.20;;;14.30;99.90;;;;;;5010975;28;20260;-81
2021/06/23 00:32:19;;;;;;;5.30;2.45;;;14.30;99.90;;;;;;4995464;28;20193;-80
2021/06/23 00:34:45;;;;;;;7.53;3.10;;;14.30;99.90;;;;;;4995715;28;20205;-80
2021/06/23 00:37:11;;;;;;;3.42;2.08;;;14.20;99.90;;;;;;5010607;28;20232;-80
2021/06/23 00:39:36;;;;;;;4.55;1.88;;;14.10;99.90;;;;;;4995846;28;20180;-81
2021/06/23 00:42:02;;;;;;;6.45;2.20;;;14.20;99.90;;;;;;4995215;28;20669;-80
2021/06/23 00:44:29;;;;;;;4.90;2.30;;;14.20;99.90;;;;;;4995556;28;20181;-80
2021/06/23 00:46:55;;;;;;;6.22;2.20;;;14.20;99.90;;;;;;4995410;28;20169;-80
2021/06/23 00:49:21;;;;;;;8.68;2.13;;;14.40;99.90;;;;;;4995721;28;20174;-79
2021/06/23 00:51:47;;;;;;;9.98;2.42;;;14.20;99.90;;;;;;4995196;28;20744;-81
2021/06/23 00:54:15;;;;;;;9.18;2.30;;;14.30;99.90;;;;;;5001183;28;20184;-80
2021/06/23 00:56:42;;;;;;;5.53;1.83;;;14.30;99.90;;;;;;5002929;28;20169;-81
2021/06/23 00:59:10;;;;;;;7.13;2.38;;;14.30;99.90;;;;;;5003143;28;20183;-80
2021/06/23 01:01:41;;;;;;;6.50;1.80;;;14.30;99.90;;;;;;5001988;28;20173;-80
2021/06/23 01:04:07;;;;;;;6.50;2.20;;;14.30;99.90;;;;;;4997922;28;20194;-80
2021/06/23 01:06:43;;;;;;;8.40;2.15;;;14.30;99.90;;;;;;5000532;28;20192;-81
2021/06/23 01:09:09;;;;;;;4.45;1.73;;;14.20;99.90;;;;;;5000064;28;20165;-81
2021/06/23 01:11:44;;;;;;;11.02;1.90;;;14.20;99.90;;;;;;4996238;28;20243;-81
2021/06/23 01:14:12;;;;;;;9.10;2.67;;;14.20;99.90;;;;;;4995285;28;20271;-81
2021/06/23 01:16:39;;;;;;;6.75;2.53;;;14.10;99.90;;;;;;5010401;28;20172;-81
2021/06/23 01:19:10;;;;;;;7.28;2.60;;;14.10;99.90;;;;;;5010919;28;20173;-81
2021/06/23 01:21:37;;;;;;;4.05;2.55;;;13.80;99.90;;;;;;4996034;28;20240;-81
2021/06/23 01:24:05;;;;;;;8.60;3.05;;;14.00;99.90;;;;;;4995625;28;20354;-80
2021/06/23 01:26:31;;;;;;;5.03;3.00;;;14.00;99.90;;;;;;5002656;28;20538;-79
2021/06/23 01:28:56;;;;;;;5.63;2.53;;;13.90;99.90;;;;;;4997695;28;20169;-80
2021/06/23 01:31:23;;;;;;;7.28;3.40;;;13.90;99.90;;;;;;4996011;28;20177;-80
2021/06/23 01:33:50;;;;;;;2.90;2.50;;;13.80;99.90;;;;;;5000777;28;20205;-80
2021/06/23 01:36:16;;;;;;;8.60;2.92;;;13.80;99.90;;;;;;5004725;28;20645;-80
2021/06/23 01:38:41;;;;;;;9.55;3.53;;;13.80;99.90;;;;;;5014240;28;20216;-81
2021/06/23 01:41:07;;;;;;;4.60;2.97;;;13.70;99.90;;;;;;4997428;28;20238;-80
2021/06/23 01:43:33;;;;;;;12.57;4.53;;;13.80;99.90;;;;;;5004485;28;20192;-81
2021/06/23 01:46:01;;;;;;;8.98;3.13;;;13.90;99.90;;;;;;5003710;28;20181;-81
2021/06/23 01:48:27;;;;;;;6.32;3.72;;;14.10;99.90;;;;;;5009673;28;20223;-81
2021/06/23 01:51:04;;;;;;;4.43;3.67;;;14.20;99.90;;;;;;4997826;28;20170;-80
2021/06/23 01:53:33;;;;;;;13.05;3.88;;;14.30;99.90;;;;;;5012529;28;20215;-81
2021/06/23 01:55:59;;;;;;;7.57;4.38;;;14.30;99.90;;;;;;5002570;28;20165;-82
2021/06/23 01:58:25;;;;;;;10.88;4.40;;;14.10;99.90;;;;;;5003016;28;20167;-82
2021/06/23 02:01:21;;;;;;;4.88;3.67;;;14.20;99.90;;;;;;5005030;28;20696;-81
2021/06/23 02:03:56;;;;;;;16.30;5.60;;;14.00;99.90;;;;;;5018876;28;20165;-79
2021/06/23 02:06:37;;;;;;;5.28;4.68;;;13.80;99.90;;;;;;5017657;28;20160;-81
2021/06/23 02:09:22;;;;;;;9.88;6.22;;;13.90;99.90;;;;;;5007915;28;20842;-82
2021/06/23 02:11:51;;;;;;;13.18;5.15;;;13.80;99.90;;;;;;4996816;28;20201;-80
2021/06/23 02:14:33;;;;;;;10.50;4.53;;;13.80;99.90;;;;;;4994764;28;20621;-81
2021/06/23 02:17:02;;;;;;;11.65;6.00;;;13.70;99.90;;;;;;4997222;28;20172;-82
2021/06/23 02:19:28;;;;;;;9.35;5.60;;;13.70;99.90;;;;;;4998444;28;20181;-82
2021/06/23 02:21:55;;;;;;;5.95;5.40;;;13.70;99.90;;;;;;4996793;28;20185;-80
2021/06/23 02:24:21;;;;;;;15.48;5.88;;;13.80;99.90;;;;;;4994472;28;20201;-81
2021/06/23 02:26:47;;;;;;;14.52;5.75;;;13.80;99.90;;;;;;4997290;28;20220;-80
2021/06/23 02:29:12;;;;;;;10.57;6.50;;;13.70;99.90;;;;;;4994731;28;20180;-81
2021/06/23 02:31:39;;;;;;;16.40;5.75;;;13.70;99.90;;;;;;4994143;28;20216;-81
2021/06/23 02:34:12;;;;;;;11.25;5.55;;;13.70;99.90;;;;;;4994370;28;20196;-83
2021/06/23 02:36:39;;;;;;;9.95;5.75;;;13.80;99.90;;;;;;4995443;28;20212;-83
2021/06/23 02:39:06;;;;;;;18.10;5.70;;;14.00;99.90;;;;;;4995552;28;20197;-80
2021/06/23 02:41:34;;;;;;;7.55;5.22;;;14.00;99.90;;;;;;4994737;28;20203;-81
2021/06/23 02:44:00;;;;;;;11.40;5.38;;;14.10;99.90;;;;;;4994729;28;20512;-81
2021/06/23 02:46:26;;;;;;;11.43;5.95;;;14.10;99.90;;;;;;4995949;28;20165;-80
2021/06/23 02:48:52;;;;;;;9.63;5.30;;;14.10;99.90;;;;;;4995750;28;20656;-80
2021/06/23 02:51:19;;;;;;;9.57;6.07;;;14.20;99.90;;;;;;4996453;28;20661;-80
2021/06/23 02:53:46;;;;;;;10.00;4.38;;;14.10;99.90;;;;;;4995474;28;20219;-80
2021/06/23 02:56:12;;;;;;;10.82;5.40;;;14.00;99.90;;;;;;4996004;28;20168;-80
2021/06/23 02:58:40;;;;;;;6.60;5.13;;;14.10;99.90;;;;;;4993767;28;20177;-81
2021/06/23 03:01:06;;;;;;;16.17;5.40;;;14.20;99.90;;;;;;4998071;28;20701;-80
2021/06/23 03:03:32;;;;;;;12.25;5.28;;;14.20;99.90;;;;;;4997842;28;20275;-80
2021/06/23 03:06:02;;;;;;;12.77;5.78;;;14.30;99.90;;;;;;4997001;28;20169;-82
2021/06/23 03:08:31;;;;;;;9.38;5.55;;;14.20;99.90;;;;;;4997271;28;20169;-81
2021/06/23 03:10:56;;;;;;;8.10;5.40;;;14.10;99.90;;;;;;4997047;28;20173;-81
2021/06/23 03:13:22;;;;;;;9.50;5.13;;;14.20;99.90;;;;;;4996494;28;20204;-80
2021/06/23 03:15:49;;;;;;;9.52;5.75;;;14.40;99.90;;;;;;4997917;28;20701;-81
2021/06/23 03:18:15;;;;;;;9.57;5.47;;;14.50;99.90;;;;;;4999351;28;20177;-82
2021/06/23 03:20:41;;;;;;;14.65;6.45;;;14.60;99.90;;;;;;4997748;28;20169;-80
2021/06/23 03:23:07;;;;;;;9.68;6.30;;;14.50;99.90;;;;;;5011865;28;20245;-81
2021/06/23 03:25:33;;;;;;;11.13;5.50;;;14.30;99.90;;;;;;4995917;28;20176;-80
2021/06/23 03:28:04;;;;;;;6.97;5.97;;;14.40;99.90;;;;;;5009841;28;20158;-81
2021/06/23 03:30:30;;;;;;;14.68;6.32;;;14.40;99.90;;;;;;4996461;28;20536;-80
2021/06/23 03:32:57;;;;;;;18.52;6.20;;;14.50;99.90;;;;;;4994932;28;20254;-80
2021/06/23 03:35:23;;;;;;;10.45;6.22;;;14.40;99.90;;;;;;5008656;28;20222;-80
2021/06/23 03:37:51;;;;;;;19.35;6.45;;;14.30;99.90;;;;;;4994210;28;20252;-80
2021/06/23 03:40:19;;;;;;;9.13;6.28;;;14.30;99.90;;;;;;4996818;28;20165;-81
2021/06/23 03:42:46;;;;;;;8.45;7.13;;;14.10;99.90;;;;;;4997083;28;20716;-80
2021/06/23 03:45:12;;;;;;;8.45;6.18;;;14.20;99.90;;;;;;4999686;28;20183;-82
2021/06/23 03:47:39;;;;;;;9.93;6.00;;;14.20;99.90;;;;;;5021138;28;20169;-79
2021/06/23 03:50:07;;;;;;;11.52;6.90;;;13.90;99.90;;;;;;5009959;28;20169;-80
2021/06/23 03:52:33;;;;;;;9.18;6.70;;;13.80;99.90;;;;;;5008996;28;20185;-80
2021/06/23 03:54:59;;;;;;;15.07;6.18;;;14.00;99.90;;;;;;5006264;28;20212;-81
2021/06/23 03:57:24;;;;;;;11.07;6.40;;;14.20;99.90;;;;;;5000666;28;20196;-80
2021/06/23 03:59:51;;;;;;;12.63;7.03;;;14.30;99.90;;;;;;5001065;28;20197;-80
2021/06/23 04:02:17;;;;;;;6.90;6.13;;;14.40;99.90;;;;;;4997118;28;20185;-81
2021/06/23 04:04:45;;;;;;;10.60;6.82;;;14.30;99.90;;;;;;4996887;28;20176;-81
2021/06/23 04:07:11;;;;;;;18.17;6.55;;;14.00;99.90;;;;;;5011689;28;20173;-81
2021/06/23 04:09:37;;;;;;;10.45;7.43;;;14.00;99.90;;;;;;4996596;28;20169;-81
2021/06/23 04:12:03;;;;;;;9.77;7.43;;;14.20;99.90;;;;;;4996713;28;20225;-81
2021/06/23 04:14:28;;;;;;;8.57;6.60;;;14.20;99.90;;;;;;4996651;28;20748;-80
2021/06/23 04:16:54;;;;;;;10.65;6.75;;;14.20;99.90;;;;;;4997253;28;20170;-81
2021/06/23 04:19:20;;;;;;;8.13;7.15;;;14.20;99.90;;;;;;4996543;28;20188;-79
2021/06/23 04:21:46;;;;;;;16.25;8.07;;;14.10;99.90;;;;;;4997274;28;20233;-81
2021/06/23 04:24:13;;;;;;;11.25;7.95;;;14.00;99.90;;;;;;4997892;28;20196;-80
2021/06/23 04:26:39;;;;;;;10.55;7.40;;;14.00;99.90;;;;;;4998415;28;20170;-80
2021/06/23 04:29:05;;;;;;;13.25;7.18;;;14.10;99.90;;;;;;4997777;28;20634;-80
2021/06/23 04:31:31;;;;;;;9.63;7.10;;;14.00;99.90;;;;;;4998779;28;20173;-80
2021/06/23 04:33:57;;;;;;;12.73;8.15;;;14.00;99.90;;;;;;4997855;28;20197;-80
2021/06/23 04:36:22;;;;;;;10.68;8.18;;;14.10;99.90;;;;;;4997399;28;20192;-80
2021/06/23 04:38:48;;;;;;;14.88;8.02;;;14.30;99.90;;;;;;4997743;28;20261;-81
2021/06/23 04:41:14;;;;;;;12.32;7.78;;;14.40;99.90;;;;;;4999245;28;20193;-80
2021/06/23 04:43:40;;;;;;;13.18;8.30;;;14.50;99.90;;;;;;4996477;28;20600;-80
2021/06/23 04:46:06;;;;;;;11.65;7.55;;;14.30;99.90;;;;;;4997099;28;20173;-81
2021/06/23 04:48:33;;;;;;;10.63;7.18;;;14.20;99.90;;;;;;5002773;28;20153;-81
2021/06/23 04:50:59;;;;;;;8.75;7.45;;;14.10;99.90;;;;;;5036013;28;20169;-81
2021/06/23 04:53:25;;;;;;;8.20;7.32;;;14.20;99.90;;;;;;5017940;28;20189;-81
2021/06/23 04:55:53;;;;;;;8.48;7.07;;;14.10;99.90;;;;;;5012908;28;20208;-79
2021/06/23 04:58:19;;;;;;;9.57;6.95;;;14.20;99.90;;;;;;5013786;28;20229;-79
2021/06/23 05:00:44;;;;;;;14.68;7.07;;;14.20;99.90;;;;;;4996920;28;20663;-79
2021/06/23 05:03:10;;;;;;;10.93;7.68;;;14.20;99.90;;;;;;4996427;28;20185;-80
2021/06/23 05:05:36;;;;;;;11.60;7.80;;;14.20;99.90;;;;;;4997984;28;20215;-80
2021/06/23 05:08:02;;;;;;;8.82;7.97;;;13.80;99.90;;;;;;4997089;28;20180;-80
2021/06/23 05:10:27;;;;;;;11.68;7.80;;;13.70;99.90;;;;;;4996921;28;20645;-81
2021/06/23 05:12:53;;;;;;;10.02;7.90;;;13.80;99.90;;;;;;4995653;28;20272;-81
2021/06/23 05:15:19;;;;;;;9.80;7.43;;;13.80;99.90;;;;;;4995703;28;20211;-81
2021/06/23 05:17:44;;;;;;;8.30;7.55;;;13.90;99.90;;;;;;4995170;28;20661;-81
2021/06/23 05:20:11;;;;;;;12.85;8.05;;;14.00;99.90;;;;;;4997871;28;20227;-80
2021/06/23 05:22:37;;;;;;;13.52;8.02;;;14.00;99.90;;;;;;4995117;28;20621;-81
2021/06/23 05:25:03;;;;;;;9.07;8.18;;;14.10;99.90;;;;;;5010163;28;20323;-79
2021/06/23 05:27:29;;;;;;;13.57;9.35;;;14.50;99.90;;;;;;4995118;28;20252;-80
2021/06/23 05:29:54;;;;;;;13.15;7.78;;;14.60;99.90;;;;;;4995599;28;20169;-79
2021/06/23 05:32:20;;;;;;;8.35;7.55;;;14.60;99.90;;;;;;4996072;28;20213;-80
2021/06/23 05:34:45;;;;;;;11.30;7.93;;;14.80;99.90;;;;;;4994919;28;20209;-81
2021/06/23 05:37:11;;;;;;;11.40;7.63;;;14.80;99.90;;;;;;4995491;28;20252;-81
2021/06/23 05:39:37;;;;;;;9.07;7.93;;;14.80;99.90;;;;;;4997248;28;20252;-80
2021/06/23 05:42:04;;;;;;;19.73;8.25;;;14.80;99.90;;;;;;4995003;28;20263;-79
2021/06/23 05:44:29;;;;;;;13.30;8.38;;;14.90;99.90;;;;;;4996455;28;20177;-79
2021/06/23 05:46:56;;;;;;;15.75;7.88;;;14.80;99.90;;;;;;4995497;28;20248;-86
2021/06/23 05:49:22;;;;;;;18.40;7.70;;;14.90;99.90;;;;;;4995507;28;20580;-80
2021/06/23 05:51:47;;;;;;;8.27;6.97;;;14.90;99.90;;;;;;5010743;28;20193;-81
2021/06/23 05:54:13;;;;;;;8.30;7.57;;;14.90;99.90;;;;;;4994418;28;20201;-80
2021/06/23 05:56:39;;;;;;;16.75;8.38;;;15.10;99.90;;;;;;4994923;28;20161;-81
2021/06/23 05:59:05;;;;;;;12.35;7.97;;;15.00;99.90;;;;;;4994612;28;20664;-82
2021/06/23 06:01:31;;;;;;;11.73;7.78;;;15.00;99.90;;;;;;4994441;28;20296;-82
2021/06/23 06:03:57;;;;;;;11.63;7.22;;;14.90;99.90;;;;;;4995692;28;20165;-82
2021/06/23 06:06:23;;;;;;;14.40;7.53;;;14.90;99.90;;;;;;5009544;28;20208;-82
2021/06/23 06:08:49;;;;;;;18.90;6.90;;;14.90;99.90;;;;;;4994659;28;20638;-80
2021/06/23 06:11:14;;;;;;;10.25;7.57;;;15.00;99.90;;;;;;4994006;28;20201;-80
2021/06/23 06:13:40;;;;;;;14.82;6.95;;;15.00;99.90;;;;;;4994138;28;20217;-80
2021/06/23 06:16:05;;;;;;;18.88;7.55;;;15.00;99.90;;;;;;4993048;28;20173;-81
2021/06/23 06:18:31;;;;;;;7.63;7.00;;;15.00;99.90;;;;;;4994378;28;20195;-82
2021/06/23 06:20:57;;;;;;;10.93;7.18;;;15.10;99.90;;;;;;4993731;28;20181;-81
2021/06/23 06:23:24;;;;;;;21.17;7.85;;;15.30;99.90;;;;;;4993602;28;20263;-82
2021/06/23 06:25:51;;;;;;;9.98;7.40;;;15.40;99.90;;;;;;5009126;28;20256;-81
2021/06/23 06:28:17;;;;;;;11.85;7.28;;;15.30;99.90;;;;;;4994491;28;20215;-82
2021/06/23 06:30:43;;;;;;;12.90;7.55;;;15.20;99.90;;;;;;4994396;28;20175;-82
2021/06/23 06:33:08;;;;;;;6.95;6.28;;;15.30;99.90;;;;;;4994581;28;20239;-83
2021/06/23 06:35:35;;;;;;;7.47;6.07;;;15.30;99.90;;;;;;4992664;28;20181;-82
2021/06/23 06:38:01;;;;;;;13.10;6.35;;;15.00;99.90;;;;;;5010265;28;20169;-81
2021/06/23 06:40:26;;;;;;;9.82;7.07;;;14.90;99.90;;;;;;4993690;28;20260;-83
2021/06/23 06:42:52;;;;;;;12.00;6.90;;;15.00;99.90;;;;;;4994091;28;20185;-79
2021/06/23 06:45:19;;;;;;;11.82;7.10;;;15.00;99.90;;;;;;5009446;28;20272;-82
2021/06/23 06:47:45;;;;;;;11.23;6.97;;;15.20;99.90;;;;;;5009530;28;20170;-82
2021/06/23 06:50:11;;;;;;;7.07;6.35;;;15.00;99.90;;;;;;4993860;28;20181;-82
2021/06/23 06:52:38;;;;;;;9.65;7.25;;;15.20;99.90;;;;;;5008533;28;20189;-82
2021/06/23 06:55:06;;;;;;;9.25;7.13;;;15.30;99.90;;;;;;5008853;28;20216;-81
2021/06/23 06:57:32;;;;;;;11.82;6.78;;;15.30;99.90;;;;;;4994524;28;20169;-82
2021/06/23 06:59:58;;;;;;;12.52;7.55;;;15.20;99.90;;;;;;4993154;28;20209;-81
2021/06/23 07:02:25;;;;;;;7.57;6.68;;;15.50;99.90;;;;;;4994232;28;20185;-86
2021/06/23 07:04:50;;;;;;;13.52;7.68;;;15.80;99.90;;;;;;4995477;28;20197;-84
2021/06/23 07:07:16;;;;;;;16.25;7.80;;;15.80;99.90;;;;;;4994947;28;20180;-85
2021/06/23 07:09:42;;;;;;;13.40;6.78;;;15.90;99.90;;;;;;5009785;28;20633;-83
2021/06/23 07:12:08;;;;;;;17.73;7.40;;;15.80;99.90;;;;;;5009844;28;20199;-83
2021/06/23 07:14:35;;;;;;;10.20;6.72;;;15.70;99.90;;;;;;4994359;28;20208;-83
2021/06/23 07:17:00;;;;;;;10.95;7.10;;;15.90;99.90;;;;;;4996337;28;20599;-81
2021/06/23 07:19:26;;;;;;;13.35;7.07;;;16.10;99.90;;;;;;4993224;28;20161;-83
2021/06/23 07:21:52;;;;;;;14.23;7.10;;;15.90;99.90;;;;;;4997730;28;20188;-83
2021/06/23 07:24:19;;;;;;;11.38;5.47;;;15.70;99.90;;;;;;4999028;28;20239;-83
2021/06/23 07:26:47;;;;;;;6.32;5.35;;;15.80;99.90;;;;;;4997963;28;20209;-83
2021/06/23 07:29:13;;;;;;;16.10;7.10;;;15.90;99.90;;;;;;4999419;28;20169;-82
2021/06/23 07:31:51;;;;;;;10.60;6.05;;;16.10;99.90;;;;;;4999676;28;20553;-83
2021/06/23 07:34:36;;;;;;;9.68;5.40;;;15.80;99.90;;;;;;5003733;28;20212;-83
2021/06/23 07:37:05;;;;;;;10.93;5.57;;;15.80;99.90;;;;;;5027400;28;20183;-83
2021/06/23 07:39:32;;;;;;;12.43;6.32;;;16.10;99.90;;;;;;5034785;28;20196;-81
2021/06/23 07:41:58;;;;;;;6.78;5.47;;;16.10;99.90;;;;;;5019455;28;20189;-83
2021/06/23 07:45:11;;;;;;;16.55;6.15;;;16.30;99.90;;;;;;5019510;28;20212;-82
2021/06/23 07:47:13;;;;;;;15.52;6.45;;;16.50;99.90;;;;;;5000686;28;20209;-82
2021/06/23 07:49:41;;;;;;;10.35;5.35;;;16.40;99.90;;;;;;4999020;28;20201;-84
2021/06/23 08:08:47;;;;;;;7.35;4.15;;;16.50;99.90;;;;;;4998147;28;20307;-81
2021/06/23 08:14:14;;;;;;;11.07;4.53;;;16.90;99.90;;;;;;4994948;28;20591;-83
2021/06/23 08:16:40;;;;;;;11.55;4.97;;;17.20;99.90;;;;;;4997756;28;20235;-83
2021/06/23 08:19:05;;;;;;;5.93;5.22;;;17.40;99.90;;;;;;5012355;28;20173;-82
2021/06/23 08:21:31;;;;;;;13.48;5.68;;;17.40;99.90;;;;;;4997439;28;20169;-81
2021/06/23 08:23:57;;;;;;;10.82;5.35;;;17.40;99.90;;;;;;4996933;28;20264;-81
2021/06/23 08:26:22;;;;;;;7.25;5.05;;;17.30;99.90;;;;;;4995394;28;20181;-81
2021/06/23 08:28:48;;;;;;;6.15;5.05;;;17.30;99.90;;;;;;4996766;28;20193;-80
2021/06/23 08:31:14;;;;;;;9.95;4.45;;;17.50;99.90;;;;;;4996254;28;20176;-80
2021/06/23 08:33:40;;;;;;;9.85;5.00;;;17.40;99.90;;;;;;4996547;28;20204;-94
2021/06/23 08:36:06;;;;;;;13.20;5.22;;;17.20;99.90;;;;;;5012392;28;20189;-81
2021/06/23 08:38:32;;;;;;;9.95;4.78;;;17.10;99.90;;;;;;5012637;28;20176;-81
2021/06/23 08:41:00;;;;;;;18.67;4.88;;;16.90;99.90;;;;;;4997316;28;20264;-80
2021/06/23 08:43:26;;;;;;;48.45;7.18;;;16.90;99.90;;;;;;4996612;28;20262;-79
2021/06/23 08:45:52;;;;;;;29.40;7.78;;;16.90;99.90;;;;;;4998185;28;20166;-82
2021/06/23 08:48:18;;;;;;;9.18;5.18;;;17.40;99.90;;;;;;4997769;28;20582;-79
2021/06/23 08:50:44;;;;;;;6.95;4.55;;;17.70;99.90;;;;;;4995755;28;20194;-81
2021/06/23 08:53:09;;;;;;;11.43;5.45;;;17.60;99.90;;;;;;4996173;28;20247;-79
2021/06/23 08:55:36;;;;;;;6.88;5.53;;;17.40;99.90;;;;;;4996212;28;20587;-82
2021/06/23 08:58:03;;;;;;;10.98;4.88;;;17.40;99.90;;;;;;4997579;28;20191;-79
2021/06/23 09:00:29;;;;;;;9.93;5.30;;;17.40;99.90;;;;;;5001586;28;20165;-81
2021/06/23 09:03:05;;;;;;;6.65;5.28;;;17.30;99.90;;;;;;4998894;28;20233;-82
2021/06/23 09:06:06;;;;;;;9.48;5.05;;;17.20;99.90;;;;;;4998394;28;20171;-80
2021/06/23 09:08:38;;;;;;;7.75;5.45;;;17.10;99.90;;;;;;4994716;28;20561;-81
2021/06/23 09:11:21;;;;;;;17.35;5.55;;;16.90;99.90;;;;;;5004396;28;20981;-82
2021/06/23 09:13:46;;;;;;;15.13;5.38;;;17.10;99.90;;;;;;5001801;28;20203;-82
2021/06/23 09:16:12;;;;;;;9.25;4.78;;;17.70;99.90;;;;;;4995443;28;20189;-81
2021/06/23 09:18:40;;;;;;;12.77;5.30;;;17.80;99.90;;;;;;4996478;28;20168;-80
2021/06/23 09:21:19;;;;;;;13.25;5.93;;;17.90;99.90;;;;;;4996171;28;20177;-80
2021/06/23 09:23:52;;;;;;;9.98;5.25;;;17.70;99.90;;;;;;4996140;28;20185;-80
2021/06/23 09:26:34;;;;;;;7.60;4.70;;;17.90;99.90;;;;;;4996507;28;20180;-82
2021/06/23 09:29:11;;;;;;;10.15;5.25;;;18.00;99.90;;;;;;5012224;28;20264;-82
2021/06/23 09:32:03;;;;;;;21.55;5.50;;;18.30;99.90;;;;;;5001123;28;20212;-85
2021/06/23 09:34:32;;;;;;;14.25;4.85;;;18.10;99.90;;;;;;5006634;28;20228;-82
2021/06/23 09:36:59;;;;;;;7.03;5.38;;;18.30;99.90;;;;;;5000936;28;20179;-79
2021/06/23 09:39:30;;;;;;;6.38;4.43;;;18.40;99.90;;;;;;5020676;28;20183;-80
2021/06/23 09:41:57;;;;;;;6.57;4.57;;;18.70;99.90;;;;;;4995106;28;20608;-85
2021/06/23 09:44:26;;;;;;;8.70;4.88;;;18.80;99.90;;;;;;5011474;28;20196;-81
2021/06/23 09:47:05;;;;;;;11.30;4.70;;;18.90;99.90;;;;;;4995561;28;20255;-85
2021/06/23 09:49:42;;;;;;;7.03;4.95;;;18.80;99.90;;;;;;5012780;28;20177;-87
2021/06/23 09:52:13;;;;;;;13.38;5.22;;;18.50;99.90;;;;;;5012824;28;20242;-80
2021/06/23 09:54:54;;;;;;;12.90;5.38;;;18.40;99.90;;;;;;5010242;28;20236;-80
2021/06/23 09:57:20;;;;;;;10.98;4.38;;;18.50;99.90;;;;;;4995082;28;20181;-81
2021/06/23 10:00:11;;;;;;;11.88;4.30;;;18.30;99.90;;;;;;5010337;28;20162;-81
2021/06/23 10:02:37;;;;;;;7.20;4.20;;;18.20;99.90;;;;;;4996463;28;20189;-81
2021/06/23 10:05:24;;;;;;;10.98;4.75;;;18.00;99.90;;;;;;5011061;28;20207;-83
2021/06/23 10:07:50;;;;;;;7.65;3.65;;;18.30;99.90;;;;;;4995693;28;20165;-82
2021/06/23 10:10:21;;;;;;;11.27;3.83;;;18.40;99.90;;;;;;5010667;28;20180;-81
2021/06/23 10:12:56;;;;;;;11.82;4.28;;;18.30;99.90;;;;;;4995241;28;20304;-82
2021/06/23 10:15:22;;;;;;;7.18;4.20;;;18.20;99.90;;;;;;4996347;28;20200;-84
2021/06/23 10:17:48;;;;;;;8.50;4.13;;;18.30;99.90;;;;;;4995326;28;20173;-83
2021/06/23 10:20:16;;;;;;;15.40;4.32;;;18.50;99.90;;;;;;4998862;28;20189;-81
2021/06/23 10:22:43;;;;;;;10.60;4.63;;;18.40;99.90;;;;;;5002449;28;20185;-82
2021/06/23 10:25:12;;;;;;;7.60;4.60;;;18.20;99.90;;;;;;5015824;28;20236;-83
2021/06/23 10:27:46;;;;;;;12.85;4.13;;;18.10;99.90;;;;;;5014673;28;20200;-81
2021/06/23 10:30:13;;;;;;;7.10;4.30;;;18.10;99.90;;;;;;5014350;28;20176;-79
2021/06/23 10:32:41;;;;;;;8.30;4.15;;;18.20;99.90;;;;;;5003585;28;20189;-81
2021/06/23 10:35:07;;;;;;;8.98;4.60;;;18.40;99.90;;;;;;5025563;28;20252;-81
2021/06/23 10:37:36;;;;;;;12.60;5.47;;;18.50;99.90;;;;;;5020575;28;20257;-82
2021/06/23 10:40:06;;;;;;;9.13;4.93;;;18.70;99.90;;;;;;5010093;28;20192;-83
2021/06/23 10:42:33;;;;;;;8.02;4.30;;;18.60;99.90;;;;;;5005446;28;20276;-78
2021/06/23 10:44:58;;;;;;;7.57;4.78;;;18.50;99.90;;;;;;5001596;28;20201;-81
2021/06/23 10:47:29;;;;;;;14.93;4.90;;;18.70;99.90;;;;;;4999253;28;20199;-84
2021/06/23 10:49:55;;;;;;;10.68;4.47;;;19.00;99.90;;;;;;4998016;28;20185;-82
2021/06/23 10:52:21;;;;;;;9.15;4.68;;;19.00;99.90;;;;;;4997782;28;20260;-81
2021/06/23 10:54:47;;;;;;;10.77;5.35;;;18.80;99.90;;;;;;4995636;28;20248;-84
2021/06/23 10:57:41;;;;;;;9.50;4.43;;;18.30;99.90;;;;;;4998579;28;20166;-88
2021/06/23 11:00:10;;;;;;;10.43;6.07;;;18.20;99.90;;;;;;4993674;28;20260;-87
2021/06/23 11:02:38;;;;;;;9.65;5.43;;;18.40;99.90;;;;;;4996548;28;20189;-87
2021/06/23 11:05:05;;;;;;;6.03;5.20;;;18.80;99.90;;;;;;4996344;28;20173;-83
2021/06/23 11:07:33;;;;;;;10.40;5.43;;;19.00;99.90;;;;;;4996185;28;20892;-86
2021/06/23 11:10:18;;;;;;;9.95;6.97;;;19.10;99.90;;;;;;5009210;28;20216;-81
2021/06/23 11:12:48;;;;;;;14.75;6.15;;;19.20;99.90;;;;;;5010919;28;20204;-82
2021/06/23 11:15:23;;;;;;;10.90;5.13;;;18.90;99.90;;;;;;4978761;28;20263;-86
2021/06/23 11:17:51;;;;;;;9.18;6.15;;;19.00;99.90;;;;;;4981006;28;20161;-86
2021/06/23 11:20:20;;;;;;;10.40;5.95;;;19.10;99.90;;;;;;5014778;28;20247;-87
2021/06/23 11:22:50;;;;;;;8.82;6.03;;;19.20;99.90;;;;;;4996950;28;20203;-89
2021/06/23 11:25:25;;;;;;;10.38;5.85;;;19.50;99.90;;;;;;4998447;28;20169;-89
2021/06/23 11:28:11;;;;;;;11.80;6.30;;;19.80;99.90;;;;;;4997891;28;20850;-83
2021/06/23 11:30:52;;;;;;;8.38;6.55;;;19.90;99.90;;;;;;4977418;28;20162;-83
2021/06/23 11:33:27;;;;;;;11.23;6.93;;;20.10;99.90;;;;;;4978617;28;20207;-90
2021/06/23 11:35:58;;;;;;;12.40;7.43;;;20.10;99.90;;;;;;4993336;28;20348;-89
2021/06/23 11:38:25;;;;;;;13.27;6.28;;;20.00;99.90;;;;;;4981736;28;20173;-87
2021/06/23 11:40:53;;;;;;;15.73;6.88;;;19.80;99.90;;;;;;4976800;28;20166;-83
2021/06/23 11:43:19;;;;;;;8.85;5.80;;;19.90;99.90;;;;;;4976492;28;20182;-82
2021/06/23 11:45:45;;;;;;;15.20;7.00;;;20.10;99.90;;;;;;4975523;28;20181;-82
2021/06/23 11:48:11;;;;;;;14.18;7.00;;;20.30;99.90;;;;;;4974607;28;20234;-82
2021/06/23 11:50:40;;;;;;;9.95;7.50;;;20.40;99.90;;;;;;4975292;28;20220;-83
2021/06/23 11:53:07;;;;;;;15.88;6.60;;;20.30;99.90;;;;;;4974813;28;20182;-83
2021/06/23 11:55:33;;;;;;;12.77;7.72;;;20.20;99.90;;;;;;4976174;28;20638;-82
2021/06/23 11:58:00;;;;;;;12.20;7.15;;;20.00;99.90;;;;;;4976233;28;20241;-83
2021/06/23 12:00:28;;;;;;;15.32;8.48;;;20.20;99.90;;;;;;4976404;28;20174;-83
2021/06/23 12:02:54;;;;;;;12.20;6.63;;;19.80;99.90;;;;;;4974946;28;20249;-83
2021/06/23 12:05:20;;;;;;;10.10;6.95;;;20.20;99.90;;;;;;4976486;28;20169;-84
2021/06/23 12:07:46;;;;;;;7.32;6.63;;;20.50;99.90;;;;;;4978954;28;20162;-82
2021/06/23 12:10:12;;;;;;;12.85;6.70;;;20.30;99.90;;;;;;4979961;28;20260;-83
2021/06/23 12:12:39;;;;;;;10.25;7.35;;;20.40;99.90;;;;;;4980122;28;20312;-83
2021/06/23 12:15:08;;;;;;;10.90;6.97;;;20.50;99.90;;;;;;4979671;28;20198;-82
2021/06/23 12:17:37;;;;;;;7.88;7.18;;;20.80;99.90;;;;;;4980124;28;20181;-83
2021/06/23 12:20:05;;;;;;;12.68;7.00;;;20.50;99.90;;;;;;4980181;28;20170;-83
2021/06/23 12:22:32;;;;;;;8.30;6.07;;;20.70;99.90;;;;;;4979708;28;20276;-83
2021/06/23 12:24:58;;;;;;;9.02;6.78;;;20.60;99.90;;;;;;4979338;28;20189;-83
2021/06/23 12:27:25;;;;;;;13.18;6.68;;;20.90;99.90;;;;;;4994665;28;20189;-83
2021/06/23 12:29:51;;;;;;;18.50;7.20;;;21.10;99.90;;;;;;4979365;28;20166;-83
2021/06/23 12:32:16;;;;;;;12.38;6.82;;;21.10;99.90;;;;;;4979602;28;20654;-83
2021/06/23 12:34:42;;;;;;;7.90;6.75;;;21.30;99.90;;;;;;4978229;28;20220;-82
2021/06/23 12:37:08;;;;;;;11.75;7.55;;;20.90;99.90;;;;;;4979768;28;20177;-83
2021/06/23 12:39:34;;;;;;;10.55;7.00;;;21.10;99.90;;;;;;4980253;28;20200;-82
2021/06/23 12:42:00;;;;;;;11.50;6.43;;;21.10;99.90;;;;;;4979493;28;20272;-83
2021/06/23 12:44:28;;;;;;;17.92;6.93;;;21.00;99.90;;;;;;4979646;28;20166;-82
2021/06/23 12:47:01;;;;;;;14.50;7.60;;;21.20;99.90;;;;;;4979813;28;20170;-83
2021/06/23 12:49:27;;;;;;;13.68;6.97;;;21.20;99.90;;;;;;4980526;28;20174;-81
2021/06/23 12:51:52;;;;;;;7.28;6.05;;;21.50;99.90;;;;;;4983035;28;20194;-82
2021/06/23 12:54:18;;;;;;;14.82;6.80;;;21.40;99.90;;;;;;4984637;28;20240;-82
2021/06/23 12:56:45;;;;;;;11.30;7.35;;;21.30;99.90;;;;;;4981531;28;20166;-81
2021/06/23 12:59:12;;;;;;;14.93;5.93;;;21.00;99.90;;;;;;4980421;28;20166;-82
2021/06/23 13:01:37;;;;;;;11.77;6.80;;;21.10;99.90;;;;;;4982232;28;20181;-82
2021/06/23 13:04:03;;;;;;;13.82;6.75;;;21.10;99.90;;;;;;4981775;28;20225;-82